sensor_id;sensor_type;location;lat;lon;timestamp;pressure;altitude;pressure_sealevel;temperature;humidity
35647;BME280;28680;45.642;13.756;2023-01-27T00:01:16;100962.91;;;5.13;100.00
35647;BME280;28680;45.642;13.756;2023-01-27T00:03:42;100961.38;;;5.42;100.00
35647;BME280;28680;45.642;13.756;2023-01-27T00:06:08;100958.19;;;5.37;100.00
35647;BME280;28680;45.642;13.756;2023-01-27T00:08:36;100953.47;;;4.95;100.00
35647;BME280;28680;45.642;13.756;2023-01-27T00:11:02;100961.84;;;4.84;100.00
35647;BME280;28680;45.642;13.756;2023-01-27T00:13:47;100966.84;;;4.87;100.00
35647;BME280;28680;45.642;13.756;2023-01-27T00:16:13;100962.56;;;5.03;100.00
35647;BME280;28680;45.642;13.756;2023-01-27T00:18:39;100965.59;;;4.78;100.00
35647;BME280;28680;45.642;13.756;2023-01-27T00:21:05;100957.06;;;4.92;100.00
35647;BME280;28680;45.642;13.756;2023-01-27T00:23:49;100967.25;;;4.79;100.00
35647;BME280;28680;45.642;13.756;2023-01-27T00:26:34;100961.03;;;4.82;100.00
35647;BME280;28680;45.642;13.756;2023-01-27T00:29:00;100953.09;;;4.85;100.00
35647;BME280;28680;45.642;13.756;2023-01-27T00:31:26;100956.44;;;5.38;100.00
35647;BME280;28680;45.642;13.756;2023-01-27T00:34:11;100958.38;;;4.83;100.00
35647;BME280;28680;45.642;13.756;2023-01-27T00:36:40;100955.09;;;4.97;100.00
35647;BME280;28680;45.642;13.756;2023-01-27T00:39:08;100954.41;;;4.94;100.00
35647;BME280;28680;45.642;13.756;2023-01-27T00:41:35;100962.72;;;5.00;100.00
35647;BME280;28680;45.642;13.756;2023-01-27T00:44:02;100942.44;;;4.89;100.00
35647;BME280;28680;45.642;13.756;2023-01-27T00:46:30;100948.53;;;5.06;100.00
35647;BME280;28680;45.642;13.756;2023-01-27T00:48:56;100937.81;;;4.79;100.00
35647;BME280;28680;45.642;13.756;2023-01-27T00:51:22;100958.56;;;5.14;100.00
35647;BME280;28680;45.642;13.756;2023-01-27T00:53:48;100942.63;;;4.86;100.00
35647;BME280;28680;45.642;13.756;2023-01-27T00:56:14;100953.94;;;5.03;100.00
35647;BME280;28680;45.642;13.756;2023-01-27T00:58:41;100940.88;;;5.36;100.00
35647;BME280;28680;45.642;13.756;2023-01-27T01:01:15;100950.75;;;5.47;100.00
35647;BME280;28680;45.642;13.756;2023-01-27T01:03:41;100950.84;;;5.61;100.00
35647;BME280;28680;45.642;13.756;2023-01-27T01:06:10;100951.34;;;5.68;100.00
35647;BME280;28680;45.642;13.756;2023-01-27T01:08:37;100942.19;;;5.12;100.00
35647;BME280;28680;45.642;13.756;2023-01-27T01:11:05;100945.28;;;5.52;100.00
35647;BME280;28680;45.642;13.756;2023-01-27T01:13:32;100941.47;;;5.25;100.00
35647;BME280;28680;45.642;13.756;2023-01-27T01:16:05;100938.16;;;5.87;100.00
35647;BME280;28680;45.642;13.756;2023-01-27T01:18:31;100944.94;;;5.42;100.00
35647;BME280;28680;45.642;13.756;2023-01-27T01:20:57;100926.16;;;5.19;100.00
35647;BME280;28680;45.642;13.756;2023-01-27T01:23:23;100940.66;;;5.07;100.00
35647;BME280;28680;45.642;13.756;2023-01-27T01:25:53;100937.44;;;5.20;100.00
35647;BME280;28680;45.642;13.756;2023-01-27T01:28:20;100923.41;;;4.89;100.00
35647;BME280;28680;45.642;13.756;2023-01-27T01:30:46;100925.75;;;5.27;100.00
35647;BME280;28680;45.642;13.756;2023-01-27T01:33:12;100910.41;;;5.22;100.00
35647;BME280;28680;45.642;13.756;2023-01-27T01:35:39;100923.25;;;5.25;100.00
35647;BME280;28680;45.642;13.756;2023-01-27T01:38:05;100929.16;;;5.12;100.00
35647;BME280;28680;45.642;13.756;2023-01-27T01:40:31;100930.69;;;4.82;100.00
35647;BME280;28680;45.642;13.756;2023-01-27T01:43:00;100926.28;;;5.50;100.00
35647;BME280;28680;45.642;13.756;2023-01-27T01:48:16;100928.38;;;4.94;100.00
35647;BME280;28680;45.642;13.756;2023-01-27T01:53:24;100937.19;;;5.24;100.00
35647;BME280;28680;45.642;13.756;2023-01-27T01:55:57;100935.88;;;5.16;100.00
35647;BME280;28680;45.642;13.756;2023-01-27T01:58:25;100917.97;;;4.94;100.00
35647;BME280;28680;45.642;13.756;2023-01-27T02:00:54;100930.13;;;4.93;100.00
35647;BME280;28680;45.642;13.756;2023-01-27T02:03:22;100932.72;;;5.26;100.00
35647;BME280;28680;45.642;13.756;2023-01-27T02:05:51;100911.13;;;5.08;100.00
35647;BME280;28680;45.642;13.756;2023-01-27T02:08:32;100889.50;;;5.72;100.00
35647;BME280;28680;45.642;13.756;2023-01-27T02:11:00;100906.44;;;5.31;100.00
35647;BME280;28680;45.642;13.756;2023-01-27T02:13:26;100914.19;;;5.33;100.00
35647;BME280;28680;45.642;13.756;2023-01-27T02:15:53;100912.94;;;5.72;100.00
35647;BME280;28680;45.642;13.756;2023-01-27T02:18:21;100887.53;;;5.91;100.00
35647;BME280;28680;45.642;13.756;2023-01-27T02:20:50;100903.53;;;5.37;100.00
35647;BME280;28680;45.642;13.756;2023-01-27T02:26:29;100905.41;;;5.02;100.00
35647;BME280;28680;45.642;13.756;2023-01-27T02:29:01;100900.97;;;5.04;100.00
35647;BME280;28680;45.642;13.756;2023-01-27T02:31:27;100896.84;;;5.00;100.00
35647;BME280;28680;45.642;13.756;2023-01-27T02:34:00;100891.59;;;4.84;100.00
35647;BME280;28680;45.642;13.756;2023-01-27T02:36:30;100886.16;;;5.38;100.00
35647;BME280;28680;45.642;13.756;2023-01-27T02:38:57;100884.16;;;4.94;100.00
35647;BME280;28680;45.642;13.756;2023-01-27T02:41:40;100872.66;;;4.64;100.00
35647;BME280;28680;45.642;13.756;2023-01-27T02:44:08;100890.03;;;4.46;100.00
35647;BME280;28680;45.642;13.756;2023-01-27T02:46:35;100882.94;;;4.50;100.00
35647;BME280;28680;45.642;13.756;2023-01-27T02:49:02;100871.63;;;4.34;100.00
35647;BME280;28680;45.642;13.756;2023-01-27T02:51:29;100884.19;;;4.76;100.00
35647;BME280;28680;45.642;13.756;2023-01-27T02:53:55;100882.78;;;4.18;100.00
35647;BME280;28680;45.642;13.756;2023-01-27T02:56:21;100873.03;;;4.04;100.00
35647;BME280;28680;45.642;13.756;2023-01-27T02:58:47;100875.06;;;4.17;100.00
35647;BME280;28680;45.642;13.756;2023-01-27T03:01:13;100869.94;;;4.15;100.00
35647;BME280;28680;45.642;13.756;2023-01-27T03:03:39;100868.97;;;3.99;100.00
35647;BME280;28680;45.642;13.756;2023-01-27T03:06:13;100871.81;;;3.94;100.00
35647;BME280;28680;45.642;13.756;2023-01-27T03:08:39;100861.69;;;4.24;100.00
35647;BME280;28680;45.642;13.756;2023-01-27T03:11:06;100879.56;;;4.48;100.00
35647;BME280;28680;45.642;13.756;2023-01-27T03:13:32;100882.31;;;4.27;100.00
35647;BME280;28680;45.642;13.756;2023-01-27T03:15:58;100886.50;;;4.47;100.00
35647;BME280;28680;45.642;13.756;2023-01-27T03:18:43;100875.00;;;4.86;100.00
35647;BME280;28680;45.642;13.756;2023-01-27T03:21:12;100875.03;;;4.52;100.00
35647;BME280;28680;45.642;13.756;2023-01-27T03:23:38;100877.78;;;4.14;100.00
35647;BME280;28680;45.642;13.756;2023-01-27T03:26:08;100890.63;;;3.99;100.00
35647;BME280;28680;45.642;13.756;2023-01-27T03:28:35;100872.19;;;3.86;100.00
35647;BME280;28680;45.642;13.756;2023-01-27T03:31:03;100872.06;;;3.89;100.00
35647;BME280;28680;45.642;13.756;2023-01-27T03:33:30;100881.06;;;4.69;100.00
35647;BME280;28680;45.642;13.756;2023-01-27T03:35:59;100884.53;;;4.35;100.00
35647;BME280;28680;45.642;13.756;2023-01-27T03:38:44;100881.53;;;4.08;100.00
35647;BME280;28680;45.642;13.756;2023-01-27T03:41:30;100875.03;;;3.99;100.00
35647;BME280;28680;45.642;13.756;2023-01-27T03:44:14;100881.38;;;3.94;100.00
35647;BME280;28680;45.642;13.756;2023-01-27T03:46:59;100902.66;;;3.83;100.00
35647;BME280;28680;45.642;13.756;2023-01-27T03:49:25;100906.66;;;3.90;100.00
35647;BME280;28680;45.642;13.756;2023-01-27T03:51:51;100892.47;;;3.97;100.00
35647;BME280;28680;45.642;13.756;2023-01-27T03:54:16;100907.31;;;4.30;100.00
35647;BME280;28680;45.642;13.756;2023-01-27T03:56:43;100891.66;;;4.32;100.00
35647;BME280;28680;45.642;13.756;2023-01-27T03:59:09;100911.94;;;4.06;100.00
35647;BME280;28680;45.642;13.756;2023-01-27T04:01:34;100910.72;;;4.30;100.00
35647;BME280;28680;45.642;13.756;2023-01-27T04:04:00;100886.66;;;4.62;100.00
35647;BME280;28680;45.642;13.756;2023-01-27T04:06:45;100888.03;;;4.34;100.00
35647;BME280;28680;45.642;13.756;2023-01-27T04:09:24;100891.19;;;4.58;100.00
35647;BME280;28680;45.642;13.756;2023-01-27T04:11:51;100899.22;;;4.87;100.00
35647;BME280;28680;45.642;13.756;2023-01-27T04:14:23;100880.28;;;5.50;100.00
35647;BME280;28680;45.642;13.756;2023-01-27T04:16:52;100889.16;;;5.46;100.00
35647;BME280;28680;45.642;13.756;2023-01-27T04:19:19;100879.84;;;4.59;100.00
35647;BME280;28680;45.642;13.756;2023-01-27T04:21:46;100881.56;;;4.43;100.00
35647;BME280;28680;45.642;13.756;2023-01-27T04:24:13;100870.31;;;4.07;100.00
35647;BME280;28680;45.642;13.756;2023-01-27T04:26:49;100874.59;;;4.43;100.00
35647;BME280;28680;45.642;13.756;2023-01-27T04:29:16;100882.84;;;4.17;100.00
35647;BME280;28680;45.642;13.756;2023-01-27T04:31:42;100878.03;;;4.95;100.00
35647;BME280;28680;45.642;13.756;2023-01-27T04:34:10;100884.22;;;4.59;100.00
35647;BME280;28680;45.642;13.756;2023-01-27T04:36:37;100882.41;;;4.26;100.00
35647;BME280;28680;45.642;13.756;2023-01-27T04:39:03;100873.97;;;4.21;100.00
35647;BME280;28680;45.642;13.756;2023-01-27T04:41:29;100882.59;;;4.21;100.00
35647;BME280;28680;45.642;13.756;2023-01-27T04:43:55;100874.75;;;4.05;100.00
35647;BME280;28680;45.642;13.756;2023-01-27T04:46:21;100867.72;;;4.42;100.00
35647;BME280;28680;45.642;13.756;2023-01-27T04:48:47;100871.44;;;4.02;100.00
35647;BME280;28680;45.642;13.756;2023-01-27T04:51:13;100875.88;;;4.00;100.00
35647;BME280;28680;45.642;13.756;2023-01-27T04:53:38;100868.72;;;4.91;100.00
35647;BME280;28680;45.642;13.756;2023-01-27T04:56:19;100866.72;;;4.96;100.00
35647;BME280;28680;45.642;13.756;2023-01-27T04:58:45;100870.22;;;4.44;100.00
35647;BME280;28680;45.642;13.756;2023-01-27T05:01:11;100866.41;;;4.51;100.00
35647;BME280;28680;45.642;13.756;2023-01-27T05:03:37;100862.53;;;4.42;100.00
35647;BME280;28680;45.642;13.756;2023-01-27T05:06:03;100879.09;;;4.75;100.00
35647;BME280;28680;45.642;13.756;2023-01-27T05:08:30;100893.41;;;4.31;100.00
35647;BME280;28680;45.642;13.756;2023-01-27T05:10:56;100881.91;;;4.70;100.00
35647;BME280;28680;45.642;13.756;2023-01-27T05:13:22;100885.81;;;5.44;100.00
35647;BME280;28680;45.642;13.756;2023-01-27T05:15:48;100889.00;;;5.33;100.00
35647;BME280;28680;45.642;13.756;2023-01-27T05:18:14;100891.38;;;5.04;100.00
35647;BME280;28680;45.642;13.756;2023-01-27T05:20:40;100889.66;;;4.54;100.00
35647;BME280;28680;45.642;13.756;2023-01-27T05:23:06;100874.84;;;4.72;100.00
35647;BME280;28680;45.642;13.756;2023-01-27T05:25:50;100879.03;;;4.41;100.00
35647;BME280;28680;45.642;13.756;2023-01-27T05:28:16;100890.31;;;5.08;100.00
35647;BME280;28680;45.642;13.756;2023-01-27T05:30:42;100881.31;;;4.30;100.00
35647;BME280;28680;45.642;13.756;2023-01-27T05:33:08;100872.97;;;4.58;100.00
35647;BME280;28680;45.642;13.756;2023-01-27T05:35:35;100868.78;;;4.38;100.00
35647;BME280;28680;45.642;13.756;2023-01-27T05:38:01;100845.56;;;4.35;100.00
35647;BME280;28680;45.642;13.756;2023-01-27T05:40:27;100859.81;;;4.95;100.00
35647;BME280;28680;45.642;13.756;2023-01-27T05:42:53;100860.69;;;4.44;100.00
35647;BME280;28680;45.642;13.756;2023-01-27T05:45:19;100860.47;;;4.82;100.00
35647;BME280;28680;45.642;13.756;2023-01-27T05:47:49;100865.53;;;4.68;100.00
35647;BME280;28680;45.642;13.756;2023-01-27T05:50:16;100856.31;;;4.45;100.00
35647;BME280;28680;45.642;13.756;2023-01-27T05:52:42;100834.66;;;4.62;100.00
35647;BME280;28680;45.642;13.756;2023-01-27T05:55:08;100848.16;;;4.86;100.00
35647;BME280;28680;45.642;13.756;2023-01-27T05:57:34;100833.16;;;5.23;100.00
35647;BME280;28680;45.642;13.756;2023-01-27T06:00:00;100817.94;;;5.31;100.00
35647;BME280;28680;45.642;13.756;2023-01-27T06:02:25;100851.22;;;5.26;100.00
35647;BME280;28680;45.642;13.756;2023-01-27T06:04:51;100849.19;;;4.66;100.00
35647;BME280;28680;45.642;13.756;2023-01-27T06:07:17;100863.50;;;4.40;100.00
35647;BME280;28680;45.642;13.756;2023-01-27T06:09:43;100856.94;;;4.50;100.00
35647;BME280;28680;45.642;13.756;2023-01-27T06:12:09;100860.41;;;4.66;100.00
35647;BME280;28680;45.642;13.756;2023-01-27T06:14:35;100856.69;;;4.55;100.00
35647;BME280;28680;45.642;13.756;2023-01-27T06:17:00;100856.16;;;4.65;100.00
35647;BME280;28680;45.642;13.756;2023-01-27T06:19:27;100849.44;;;4.26;100.00
35647;BME280;28680;45.642;13.756;2023-01-27T06:21:52;100856.00;;;4.51;100.00
35647;BME280;28680;45.642;13.756;2023-01-27T06:24:18;100862.75;;;4.88;100.00
35647;BME280;28680;45.642;13.756;2023-01-27T06:26:44;100865.22;;;4.74;100.00
35647;BME280;28680;45.642;13.756;2023-01-27T06:29:10;100868.75;;;5.22;100.00
35647;BME280;28680;45.642;13.756;2023-01-27T06:31:36;100873.94;;;5.06;100.00
35647;BME280;28680;45.642;13.756;2023-01-27T06:34:02;100851.50;;;4.88;100.00
35647;BME280;28680;45.642;13.756;2023-01-27T06:36:28;100853.44;;;4.84;100.00
35647;BME280;28680;45.642;13.756;2023-01-27T06:38:54;100861.75;;;4.58;100.00
35647;BME280;28680;45.642;13.756;2023-01-27T06:41:20;100857.59;;;4.71;100.00
35647;BME280;28680;45.642;13.756;2023-01-27T06:43:46;100873.06;;;4.90;100.00
35647;BME280;28680;45.642;13.756;2023-01-27T06:46:11;100855.09;;;4.35;100.00
35647;BME280;28680;45.642;13.756;2023-01-27T06:48:37;100844.13;;;4.96;100.00
35647;BME280;28680;45.642;13.756;2023-01-27T06:51:04;100841.22;;;4.69;100.00
35647;BME280;28680;45.642;13.756;2023-01-27T06:53:30;100843.78;;;4.86;100.00
35647;BME280;28680;45.642;13.756;2023-01-27T06:55:58;100862.53;;;4.76;100.00
35647;BME280;28680;45.642;13.756;2023-01-27T06:58:26;100846.28;;;5.37;100.00
35647;BME280;28680;45.642;13.756;2023-01-27T07:00:52;100853.59;;;5.93;100.00
35647;BME280;28680;45.642;13.756;2023-01-27T07:03:18;100847.91;;;5.86;100.00
35647;BME280;28680;45.642;13.756;2023-01-27T07:05:44;100847.16;;;5.04;100.00
35647;BME280;28680;45.642;13.756;2023-01-27T07:08:10;100842.13;;;6.41;100.00
35647;BME280;28680;45.642;13.756;2023-01-27T07:10:36;100838.00;;;5.77;100.00
35647;BME280;28680;45.642;13.756;2023-01-27T07:13:12;100845.72;;;5.78;100.00
35647;BME280;28680;45.642;13.756;2023-01-27T07:15:38;100859.22;;;5.39;100.00
35647;BME280;28680;45.642;13.756;2023-01-27T07:18:04;100856.59;;;5.39;100.00
35647;BME280;28680;45.642;13.756;2023-01-27T07:20:31;100834.66;;;5.75;100.00
35647;BME280;28680;45.642;13.756;2023-01-27T07:22:59;100859.47;;;5.50;100.00
35647;BME280;28680;45.642;13.756;2023-01-27T07:25:26;100839.28;;;5.38;100.00
35647;BME280;28680;45.642;13.756;2023-01-27T07:27:52;100848.63;;;5.58;100.00
35647;BME280;28680;45.642;13.756;2023-01-27T07:30:18;100855.34;;;6.08;100.00
35647;BME280;28680;45.642;13.756;2023-01-27T07:32:44;100847.09;;;5.70;100.00
35647;BME280;28680;45.642;13.756;2023-01-27T07:35:10;100868.69;;;5.40;100.00
35647;BME280;28680;45.642;13.756;2023-01-27T07:37:37;100862.72;;;5.54;100.00
35647;BME280;28680;45.642;13.756;2023-01-27T07:40:04;100868.25;;;6.25;100.00
35647;BME280;28680;45.642;13.756;2023-01-27T07:42:30;100853.78;;;6.05;100.00
35647;BME280;28680;45.642;13.756;2023-01-27T07:44:55;100869.25;;;6.53;100.00
35647;BME280;28680;45.642;13.756;2023-01-27T07:47:21;100862.00;;;6.58;100.00
35647;BME280;28680;45.642;13.756;2023-01-27T07:49:49;100863.41;;;6.93;100.00
35647;BME280;28680;45.642;13.756;2023-01-27T07:52:15;100874.69;;;6.34;100.00
35647;BME280;28680;45.642;13.756;2023-01-27T07:54:41;100860.59;;;5.92;100.00
35647;BME280;28680;45.642;13.756;2023-01-27T07:57:07;100847.63;;;6.07;100.00
35647;BME280;28680;45.642;13.756;2023-01-27T07:59:32;100850.69;;;6.43;100.00
35647;BME280;28680;45.642;13.756;2023-01-27T08:01:58;100844.00;;;6.97;100.00
35647;BME280;28680;45.642;13.756;2023-01-27T08:04:24;100853.50;;;7.12;100.00
35647;BME280;28680;45.642;13.756;2023-01-27T08:06:50;100848.69;;;7.33;100.00
35647;BME280;28680;45.642;13.756;2023-01-27T08:09:16;100857.50;;;7.18;100.00
35647;BME280;28680;45.642;13.756;2023-01-27T08:11:42;100847.84;;;7.06;100.00
35647;BME280;28680;45.642;13.756;2023-01-27T08:14:08;100865.69;;;6.40;100.00
35647;BME280;28680;45.642;13.756;2023-01-27T08:16:34;100885.09;;;6.64;100.00
35647;BME280;28680;45.642;13.756;2023-01-27T08:18:59;100876.81;;;6.72;100.00
35647;BME280;28680;45.642;13.756;2023-01-27T08:21:25;100878.88;;;6.81;100.00
35647;BME280;28680;45.642;13.756;2023-01-27T08:23:58;100886.44;;;6.41;100.00
35647;BME280;28680;45.642;13.756;2023-01-27T08:26:25;100901.66;;;6.49;100.00
35647;BME280;28680;45.642;13.756;2023-01-27T08:28:51;100880.25;;;6.73;100.00
35647;BME280;28680;45.642;13.756;2023-01-27T08:31:17;100897.63;;;6.43;100.00
35647;BME280;28680;45.642;13.756;2023-01-27T08:33:50;100892.13;;;6.34;100.00
35647;BME280;28680;45.642;13.756;2023-01-27T08:36:17;100884.41;;;6.47;100.00
35647;BME280;28680;45.642;13.756;2023-01-27T08:38:44;100898.53;;;6.12;100.00
35647;BME280;28680;45.642;13.756;2023-01-27T08:41:14;100897.94;;;6.23;100.00
35647;BME280;28680;45.642;13.756;2023-01-27T08:43:41;100907.84;;;6.32;100.00
35647;BME280;28680;45.642;13.756;2023-01-27T08:46:07;100912.69;;;6.97;100.00
35647;BME280;28680;45.642;13.756;2023-01-27T08:48:35;100921.53;;;7.38;100.00
35647;BME280;28680;45.642;13.756;2023-01-27T08:51:02;100925.81;;;7.53;100.00
35647;BME280;28680;45.642;13.756;2023-01-27T08:53:29;100906.47;;;7.97;100.00
35647;BME280;28680;45.642;13.756;2023-01-27T08:55:57;100917.56;;;8.01;100.00
35647;BME280;28680;45.642;13.756;2023-01-27T08:58:24;100899.75;;;8.73;100.00
35647;BME280;28680;45.642;13.756;2023-01-27T09:00:50;100905.09;;;8.85;100.00
35647;BME280;28680;45.642;13.756;2023-01-27T09:03:16;100904.88;;;8.88;100.00
35647;BME280;28680;45.642;13.756;2023-01-27T09:05:42;100897.94;;;9.62;100.00
35647;BME280;28680;45.642;13.756;2023-01-27T09:08:09;100905.47;;;9.67;100.00
35647;BME280;28680;45.642;13.756;2023-01-27T09:10:39;100906.03;;;9.83;100.00
35647;BME280;28680;45.642;13.756;2023-01-27T09:13:07;100889.81;;;10.02;100.00
35647;BME280;28680;45.642;13.756;2023-01-27T09:15:35;100921.16;;;10.04;100.00
35647;BME280;28680;45.642;13.756;2023-01-27T09:18:02;100913.00;;;9.95;89.64
35647;BME280;28680;45.642;13.756;2023-01-27T09:20:29;100903.84;;;10.25;100.00
35647;BME280;28680;45.642;13.756;2023-01-27T09:22:55;100907.59;;;10.10;100.00
35647;BME280;28680;45.642;13.756;2023-01-27T09:25:21;100916.56;;;10.43;100.00
35647;BME280;28680;45.642;13.756;2023-01-27T09:27:48;100940.34;;;9.30;100.00
35647;BME280;28680;45.642;13.756;2023-01-27T09:30:15;100915.13;;;8.78;100.00
35647;BME280;28680;45.642;13.756;2023-01-27T09:32:41;100912.91;;;9.10;100.00
35647;BME280;28680;45.642;13.756;2023-01-27T09:35:08;100918.69;;;9.28;100.00
35647;BME280;28680;45.642;13.756;2023-01-27T09:38:04;100920.59;;;8.35;100.00
35647;BME280;28680;45.642;13.756;2023-01-27T09:40:58;100928.63;;;8.59;100.00
35647;BME280;28680;45.642;13.756;2023-01-27T09:46:35;100930.22;;;7.80;100.00
35647;BME280;28680;45.642;13.756;2023-01-27T09:52:01;100921.69;;;8.18;100.00
35647;BME280;28680;45.642;13.756;2023-01-27T09:54:41;100946.63;;;8.64;100.00
35647;BME280;28680;45.642;13.756;2023-01-27T10:00:10;100947.50;;;9.15;100.00
35647;BME280;28680;45.642;13.756;2023-01-27T10:02:52;100920.28;;;9.55;100.00
35647;BME280;28680;45.642;13.756;2023-01-27T10:20:28;100931.47;;;11.34;71.68
35647;BME280;28680;45.642;13.756;2023-01-27T10:28:29;100938.84;;;9.89;80.42
35647;BME280;28680;45.642;13.756;2023-01-27T10:31:13;100928.44;;;10.71;89.98
35647;BME280;28680;45.642;13.756;2023-01-27T10:33:55;100924.91;;;11.06;87.36
35647;BME280;28680;45.642;13.756;2023-01-27T10:36:29;100917.34;;;11.69;88.91
35647;BME280;28680;45.642;13.756;2023-01-27T10:39:34;100932.31;;;11.35;74.66
35647;BME280;28680;45.642;13.756;2023-01-27T10:42:45;100948.84;;;11.80;83.34
35647;BME280;28680;45.642;13.756;2023-01-27T10:45:35;100926.72;;;11.94;100.00
35647;BME280;28680;45.642;13.756;2023-01-27T10:51:29;100924.78;;;12.07;78.44
35647;BME280;28680;45.642;13.756;2023-01-27T10:54:06;100912.22;;;12.53;100.00
35647;BME280;28680;45.642;13.756;2023-01-27T11:00:06;100900.47;;;13.09;91.05
35647;BME280;28680;45.642;13.756;2023-01-27T11:03:12;100893.41;;;13.10;100.00
35647;BME280;28680;45.642;13.756;2023-01-27T11:05:44;100905.50;;;13.12;55.62
35647;BME280;28680;45.642;13.756;2023-01-27T11:08:17;100906.03;;;13.37;54.37
35647;BME280;28680;45.642;13.756;2023-01-27T11:10:50;100897.34;;;13.56;69.94
35647;BME280;28680;45.642;13.756;2023-01-27T11:13:37;100913.16;;;13.65;94.69
35647;BME280;28680;45.642;13.756;2023-01-27T11:16:08;100885.41;;;13.81;100.00
35647;BME280;28680;45.642;13.756;2023-01-27T11:18:38;100892.34;;;13.62;91.60
35647;BME280;28680;45.642;13.756;2023-01-27T11:21:10;100895.47;;;13.37;76.16
35647;BME280;28680;45.642;13.756;2023-01-27T11:23:43;100896.78;;;13.62;86.57
35647;BME280;28680;45.642;13.756;2023-01-27T11:26:43;100895.94;;;13.52;98.16
35647;BME280;28680;45.642;13.756;2023-01-27T11:35:12;100907.22;;;14.41;69.60
35647;BME280;28680;45.642;13.756;2023-01-27T11:37:46;100903.28;;;14.55;51.99
35647;BME280;28680;45.642;13.756;2023-01-27T11:40:33;100912.44;;;14.90;86.36
35647;BME280;28680;45.642;13.756;2023-01-27T11:43:01;100916.03;;;15.27;100.00
35647;BME280;28680;45.642;13.756;2023-01-27T11:45:33;100914.97;;;15.47;48.39
35647;BME280;28680;45.642;13.756;2023-01-27T11:48:01;100920.19;;;15.57;46.34
35647;BME280;28680;45.642;13.756;2023-01-27T11:50:33;100921.13;;;15.66;54.34
35647;BME280;28680;45.642;13.756;2023-01-27T11:53:29;100909.22;;;15.79;49.53
35647;BME280;28680;45.642;13.756;2023-01-27T11:56:07;100910.69;;;15.64;61.75
35647;BME280;28680;45.642;13.756;2023-01-27T12:01:23;100919.22;;;16.04;42.06
35647;BME280;28680;45.642;13.756;2023-01-27T12:04:21;100906.56;;;16.33;47.90
35647;BME280;28680;45.642;13.756;2023-01-27T12:07:01;100895.38;;;16.66;40.72
35647;BME280;28680;45.642;13.756;2023-01-27T12:09:38;100901.28;;;16.33;42.05
35647;BME280;28680;45.642;13.756;2023-01-27T12:14:56;100896.31;;;16.56;71.36
35647;BME280;28680;45.642;13.756;2023-01-27T12:17:30;100892.47;;;16.51;40.37
35647;BME280;28680;45.642;13.756;2023-01-27T12:23:27;100893.97;;;17.06;43.00
35647;BME280;28680;45.642;13.756;2023-01-27T12:26:01;100919.66;;;17.48;39.84
35647;BME280;28680;45.642;13.756;2023-01-27T12:33:58;100911.22;;;16.84;38.81
35647;BME280;28680;45.642;13.756;2023-01-27T12:36:26;100912.09;;;16.84;38.56
35647;BME280;28680;45.642;13.756;2023-01-27T12:38:55;100912.78;;;17.29;37.77
35647;BME280;28680;45.642;13.756;2023-01-27T12:41:41;100902.69;;;17.32;44.47
35647;BME280;28680;45.642;13.756;2023-01-27T12:44:20;100897.44;;;17.06;38.35
35647;BME280;28680;45.642;13.756;2023-01-27T12:47:02;100891.84;;;17.18;44.70
35647;BME280;28680;45.642;13.756;2023-01-27T12:49:34;100890.59;;;16.95;41.37
35647;BME280;28680;45.642;13.756;2023-01-27T12:52:04;100891.34;;;17.14;48.04
35647;BME280;28680;45.642;13.756;2023-01-27T12:54:33;100884.41;;;17.21;41.98
35647;BME280;28680;45.642;13.756;2023-01-27T12:57:15;100879.66;;;16.99;43.07
35647;BME280;28680;45.642;13.756;2023-01-27T12:59:51;100905.56;;;16.52;37.74
35647;BME280;28680;45.642;13.756;2023-01-27T13:02:30;100902.28;;;16.59;47.36
35647;BME280;28680;45.642;13.756;2023-01-27T13:05:03;100914.66;;;16.32;42.54
35647;BME280;28680;45.642;13.756;2023-01-27T13:07:42;100898.91;;;16.48;40.91
35647;BME280;28680;45.642;13.756;2023-01-27T13:10:22;100904.72;;;17.04;38.67
35647;BME280;28680;45.642;13.756;2023-01-27T13:12:54;100915.16;;;17.48;45.30
35647;BME280;28680;45.642;13.756;2023-01-27T13:15:26;100908.13;;;17.82;36.70
35647;BME280;28680;45.642;13.756;2023-01-27T13:17:58;100910.84;;;18.06;36.87
35647;BME280;28680;45.642;13.756;2023-01-27T13:20:46;100913.84;;;18.11;36.41
35647;BME280;28680;45.642;13.756;2023-01-27T13:23:22;100908.19;;;18.39;37.88
35647;BME280;28680;45.642;13.756;2023-01-27T13:37:14;100920.78;;;18.12;38.63
35647;BME280;28680;45.642;13.756;2023-01-27T13:45:23;100910.34;;;17.86;34.74
35647;BME280;28680;45.642;13.756;2023-01-27T13:48:03;100906.22;;;18.17;34.66
35647;BME280;28680;45.642;13.756;2023-01-27T13:50:39;100892.59;;;18.28;34.19
35647;BME280;28680;45.642;13.756;2023-01-27T13:53:13;100897.22;;;18.26;34.11
35647;BME280;28680;45.642;13.756;2023-01-27T14:02:28;100895.19;;;18.69;35.56
35647;BME280;28680;45.642;13.756;2023-01-27T14:05:38;100892.91;;;18.49;43.64
35647;BME280;28680;45.642;13.756;2023-01-27T14:11:33;100908.16;;;16.97;36.03
35647;BME280;28680;45.642;13.756;2023-01-27T14:23:39;100911.94;;;15.14;38.94
35647;BME280;28680;45.642;13.756;2023-01-27T14:26:42;100910.75;;;15.27;41.33
35647;BME280;28680;45.642;13.756;2023-01-27T14:32:29;100923.97;;;14.99;41.86
35647;BME280;28680;45.642;13.756;2023-01-27T14:35:30;100930.00;;;14.52;39.52
35647;BME280;28680;45.642;13.756;2023-01-27T14:38:24;100938.75;;;14.04;40.04
35647;BME280;28680;45.642;13.756;2023-01-27T14:41:33;100929.06;;;14.63;41.37
35647;BME280;28680;45.642;13.756;2023-01-27T14:44:30;100931.38;;;15.23;39.82